Time;durP1;ratioP1;P1;durP2;ratioP2;P2;SDS_P1;SDS_P2;PMS_P1;PMS_P2;Temp;Humidity;BMP_temperature;BMP_pressure;BME280_temperature;BME280_humidity;BME280_pressure;Samples;Min_cycle;Max_cycle;Signal;HPM_P1;HPM_P2
2022/02/23 00:00:50;;;;;;;24.80;8.75;;;;;;;2.33;62.89;98363.78;5108996;28;20051;-74
2022/02/23 00:03:15;;;;;;;17.77;6.88;;;;;;;2.31;63.46;98358.59;5109425;28;20032;-74
2022/02/23 00:05:41;;;;;;;21.83;8.88;;;;;;;2.31;63.26;98361.31;5105560;28;20026;-74
2022/02/23 00:08:06;;;;;;;18.35;7.22;;;;;;;2.30;62.58;98365.06;5109650;28;20088;-72
2022/02/23 00:10:32;;;;;;;17.95;7.60;;;;;;;2.30;62.98;98362.38;5108489;28;20070;-73
2022/02/23 00:12:57;;;;;;;18.40;6.75;;;;;;;2.33;63.30;98358.38;5109040;28;20024;-77
2022/02/23 00:15:22;;;;;;;22.27;7.22;;;;;;;2.34;63.24;98355.41;5109713;28;20020;-74
2022/02/23 00:17:48;;;;;;;18.05;6.53;;;;;;;2.37;62.75;98354.09;5109382;28;20088;-75
2022/02/23 00:20:14;;;;;;;18.67;6.22;;;;;;;2.38;62.68;98345.72;5109773;28;20626;-73
2022/02/23 00:22:41;;;;;;;16.00;6.50;;;;;;;2.42;63.13;98339.84;5108366;28;20717;-74
2022/02/23 00:25:07;;;;;;;15.98;6.22;;;;;;;2.45;62.80;98336.63;5109642;28;20068;-73
2022/02/23 00:27:34;;;;;;;17.95;5.90;;;;;;;2.45;62.86;98342.84;5108153;28;20031;-72
2022/02/23 00:29:59;;;;;;;18.83;5.85;;;;;;;2.46;63.01;98332.84;5108079;28;20411;-73
2022/02/23 00:32:25;;;;;;;15.93;6.10;;;;;;;2.43;62.19;98334.19;5108160;28;20020;-73
2022/02/23 00:34:50;;;;;;;16.33;5.82;;;;;;;2.44;62.97;98327.72;5108418;28;20057;-73
2022/02/23 00:37:16;;;;;;;17.73;6.57;;;;;;;2.44;62.69;98330.41;5108470;28;20050;-73
2022/02/23 00:39:42;;;;;;;16.05;6.05;;;;;;;2.46;62.70;98322.03;5108203;28;20012;-72
2022/02/23 00:42:07;;;;;;;15.05;6.25;;;;;;;2.49;62.95;98313.41;5089063;28;20050;-74
2022/02/23 00:44:33;;;;;;;12.82;5.22;;;;;;;2.50;62.04;98309.66;5106761;28;20027;-72
2022/02/23 00:46:59;;;;;;;14.85;5.60;;;;;;;2.50;62.63;98302.31;5107159;28;20076;-74
2022/02/23 00:49:25;;;;;;;12.00;5.25;;;;;;;2.52;62.33;98307.50;5106435;28;20024;-74
2022/02/23 00:51:51;;;;;;;16.48;6.03;;;;;;;2.53;62.03;98314.56;5109443;28;20028;-73
2022/02/23 00:54:18;;;;;;;16.67;5.32;;;;;;;2.53;62.08;98312.66;5109241;28;20023;-72
2022/02/23 00:56:47;;;;;;;15.27;6.97;;;;;;;2.56;62.54;98300.53;5108132;28;20468;-71
2022/02/23 00:59:13;;;;;;;14.75;5.63;;;;;;;2.56;62.88;98308.66;5108436;28;20035;-71
2022/02/23 01:01:38;;;;;;;18.63;6.50;;;;;;;2.60;62.07;98303.56;5089471;28;20012;-73
2022/02/23 01:04:05;;;;;;;15.43;5.65;;;;;;;2.61;62.11;98306.03;5107853;28;20028;-71
2022/02/23 01:06:31;;;;;;;15.32;6.18;;;;;;;2.62;62.91;98298.72;5107838;28;20020;-71
2022/02/23 01:08:57;;;;;;;14.88;5.80;;;;;;;2.60;62.86;98300.84;5107965;28;20027;-71
2022/02/23 01:11:23;;;;;;;15.50;6.03;;;;;;;2.62;62.45;98299.56;5107804;28;20047;-72
2022/02/23 01:13:49;;;;;;;13.70;5.20;;;;;;;2.62;62.60;98296.00;5108060;28;20028;-72
2022/02/23 01:16:15;;;;;;;16.30;5.82;;;;;;;2.62;62.24;98288.72;5107557;28;20028;-71
2022/02/23 01:18:40;;;;;;;14.73;5.57;;;;;;;2.63;62.84;98281.41;5108965;28;20068;-72
2022/02/23 01:21:06;;;;;;;13.18;5.10;;;;;;;2.61;62.92;98284.38;5108557;28;20054;-73
2022/02/23 01:23:31;;;;;;;14.90;5.20;;;;;;;2.64;62.65;98277.63;5108558;28;20035;-72
2022/02/23 01:25:57;;;;;;;11.65;5.28;;;;;;;2.63;62.66;98260.56;5107395;28;20031;-72
2022/02/23 01:28:22;;;;;;;13.05;5.15;;;;;;;2.66;63.80;98254.63;5108689;28;20030;-73
2022/02/23 01:30:48;;;;;;;11.60;4.35;;;;;;;2.67;63.92;98260.88;5108472;28;20114;-72
2022/02/23 01:33:13;;;;;;;12.27;5.20;;;;;;;2.63;63.84;98266.00;5108262;28;20034;-72
2022/02/23 01:35:39;;;;;;;14.18;4.50;;;;;;;2.65;64.21;98269.25;5111972;28;20102;-72
2022/02/23 01:38:05;;;;;;;11.05;3.97;;;;;;;2.66;63.93;98261.97;5111930;28;20048;-73
2022/02/23 01:40:30;;;;;;;15.57;4.78;;;;;;;2.66;64.39;98260.06;5093412;28;20016;-72
2022/02/23 01:42:56;;;;;;;11.55;4.07;;;;;;;2.67;64.16;98253.56;5112085;28;20486;-72
2022/02/23 01:45:21;;;;;;;16.25;5.38;;;;;;;2.68;64.16;98249.78;5112345;28;20088;-73
2022/02/23 01:47:47;;;;;;;10.85;4.10;;;;;;;2.69;64.15;98226.25;5111588;28;20460;-73
2022/02/23 01:50:14;;;;;;;16.35;6.38;;;;;;;2.71;64.39;98213.28;5110925;28;20157;-72
2022/02/23 01:52:39;;;;;;;14.25;5.88;;;;;;;2.72;64.33;98208.69;5112169;28;20524;-72
2022/02/23 01:55:06;;;;;;;13.93;5.32;;;;;;;2.75;64.96;98202.75;5111960;28;20019;-73
2022/02/23 01:57:32;;;;;;;12.43;4.35;;;;;;;2.77;64.55;98204.16;5111512;28;20468;-72
2022/02/23 01:59:58;;;;;;;11.40;4.93;;;;;;;2.78;64.56;98211.22;5112172;28;20031;-72
2022/02/23 02:02:26;;;;;;;13.07;5.18;;;;;;;2.79;64.55;98230.97;5111968;28;20051;-71
2022/02/23 02:04:52;;;;;;;15.93;5.03;;;;;;;2.81;64.77;98218.00;5111434;28;20020;-72
2022/02/23 02:07:17;;;;;;;15.30;4.40;;;;;;;2.81;64.32;98226.97;5111649;28;20028;-73
2022/02/23 02:09:43;;;;;;;12.90;4.50;;;;;;;2.83;64.10;98221.28;5108974;28;20027;-72
2022/02/23 02:12:08;;;;;;;12.38;4.38;;;;;;;2.86;64.43;98217.25;5109643;28;20035;-72
2022/02/23 02:14:34;;;;;;;12.70;4.60;;;;;;;2.87;64.32;98224.28;5109890;28;20031;-72
2022/02/23 02:16:59;;;;;;;11.82;4.50;;;;;;;2.87;64.83;98221.59;5111351;28;20028;-72
2022/02/23 02:19:25;;;;;;;12.75;3.95;;;;;;;2.87;64.76;98227.84;5111080;28;20015;-72
2022/02/23 02:21:58;;;;;;;11.57;5.35;;;;;;;2.87;65.26;98225.13;5111222;28;20032;-72
2022/02/23 02:24:29;;;;;;;14.15;4.43;;;;;;;2.86;65.26;98211.81;5091658;28;20404;-73
2022/02/23 02:26:56;;;;;;;16.88;4.53;;;;;;;2.85;65.37;98227.28;5109197;28;20027;-71
2022/02/23 02:29:22;;;;;;;14.88;5.05;;;;;;;2.86;65.54;98228.06;5111084;28;20485;-72
2022/02/23 02:31:48;;;;;;;15.07;5.03;;;;;;;2.85;65.85;98231.88;5110916;28;20035;-72
2022/02/23 02:34:15;;;;;;;20.73;5.07;;;;;;;2.82;65.74;98233.19;5111170;28;20031;-72
2022/02/23 02:36:40;;;;;;;14.25;6.18;;;;;;;2.80;66.31;98233.44;5111196;28;20035;-72
2022/02/23 02:39:07;;;;;;;11.18;4.78;;;;;;;2.79;66.10;98229.09;5111725;28;20024;-72
2022/02/23 02:41:33;;;;;;;15.30;6.40;;;;;;;2.74;67.97;98228.19;5112138;28;20019;-72
2022/02/23 02:43:58;;;;;;;10.13;4.55;;;;;;;2.74;67.54;98233.63;5112780;28;20038;-73
2022/02/23 02:46:24;;;;;;;12.95;4.78;;;;;;;2.71;68.15;98221.41;5111094;28;20028;-72
2022/02/23 02:48:49;;;;;;;11.27;5.03;;;;;;;2.67;68.33;98228.41;5112054;28;20565;-73
2022/02/23 02:51:14;;;;;;;13.10;5.22;;;;;;;2.63;68.23;98227.25;5112380;28;20133;-72
2022/02/23 02:53:40;;;;;;;12.63;5.38;;;;;;;2.59;69.22;98226.94;5112286;28;20032;-73
2022/02/23 02:56:05;;;;;;;14.85;5.93;;;;;;;2.55;69.45;98224.97;5092718;28;20114;-72
2022/02/23 02:58:31;;;;;;;13.75;6.20;;;;;;;2.50;70.13;98228.44;5091461;28;20032;-73
2022/02/23 03:00:56;;;;;;;14.05;6.00;;;;;;;2.43;71.27;98225.91;5111815;28;20023;-74
2022/02/23 03:03:21;;;;;;;10.35;4.65;;;;;;;2.38;71.80;98233.94;5111442;28;20035;-73
2022/02/23 03:05:48;;;;;;;13.68;5.30;;;;;;;2.33;71.30;98223.84;5109713;28;20450;-73
2022/02/23 03:08:14;;;;;;;13.50;5.90;;;;;;;2.28;72.24;98222.97;5111444;28;20031;-74
2022/02/23 03:10:40;;;;;;;13.63;5.40;;;;;;;2.22;72.55;98222.88;5111300;28;20110;-73
2022/02/23 03:13:07;;;;;;;13.02;6.03;;;;;;;2.19;73.08;98217.97;5110833;28;20068;-73
2022/02/23 03:15:33;;;;;;;13.00;5.28;;;;;;;2.17;73.84;98220.09;5111282;28;20036;-74
2022/02/23 03:17:58;;;;;;;15.88;6.45;;;;;;;2.12;73.30;98232.75;5111612;28;20467;-74
2022/02/23 03:20:24;;;;;;;13.73;5.00;;;;;;;2.08;73.84;98238.63;5110668;28;20053;-74
2022/02/23 03:22:50;;;;;;;12.65;5.15;;;;;;;2.05;74.84;98238.28;5111414;28;20119;-74
2022/02/23 03:25:15;;;;;;;15.63;6.53;;;;;;;2.04;74.81;98234.78;5111188;28;20042;-74
2022/02/23 03:27:40;;;;;;;15.60;6.18;;;;;;;2.03;74.60;98240.47;5111198;28;20511;-74
2022/02/23 03:30:06;;;;;;;12.93;5.70;;;;;;;2.00;74.78;98240.94;5110998;28;20024;-73
2022/02/23 03:32:32;;;;;;;12.75;5.90;;;;;;;2.00;75.69;98240.94;5111008;28;20028;-73
2022/02/23 03:34:57;;;;;;;13.13;5.30;;;;;;;1.97;75.35;98247.66;5110899;28;20035;-74
2022/02/23 03:37:23;;;;;;;16.23;7.25;;;;;;;1.97;76.12;98244.13;5110246;28;20036;-74
2022/02/23 03:39:49;;;;;;;9.30;4.93;;;;;;;1.98;75.74;98234.97;5111116;28;20106;-73
2022/02/23 03:42:15;;;;;;;9.82;5.38;;;;;;;1.95;76.11;98238.97;5090870;28;20458;-73
2022/02/23 03:44:40;;;;;;;9.32;5.00;;;;;;;1.97;76.05;98233.31;5110910;28;20102;-73
2022/02/23 03:47:06;;;;;;;11.80;5.25;;;;;;;1.96;76.57;98240.59;5110245;28;20023;-73
2022/02/23 03:49:31;;;;;;;12.35;5.72;;;;;;;1.96;76.73;98245.19;5110959;28;20071;-73
2022/02/23 03:51:57;;;;;;;10.88;5.40;;;;;;;1.96;77.56;98251.41;5110483;28;20050;-73
2022/02/23 03:54:22;;;;;;;15.18;5.88;;;;;;;2.00;78.12;98266.09;5110901;28;20027;-73
2022/02/23 03:56:48;;;;;;;10.73;5.63;;;;;;;1.98;77.67;98268.22;5110024;28;20069;-73
2022/02/23 03:59:14;;;;;;;12.35;5.30;;;;;;;1.99;78.15;98272.56;5110447;28;20032;-73
2022/02/23 04:01:41;;;;;;;11.52;5.00;;;;;;;2.01;77.59;98270.44;5110737;28;20384;-73
2022/02/23 04:04:08;;;;;;;12.35;5.43;;;;;;;2.02;77.89;98272.09;5110602;28;20063;-72
2022/02/23 04:06:34;;;;;;;11.20;5.18;;;;;;;2.03;78.30;98265.59;5109642;28;20047;-73
2022/02/23 04:09:00;;;;;;;11.55;4.93;;;;;;;2.02;78.23;98271.28;5110443;28;20027;-72
2022/02/23 04:11:26;;;;;;;15.15;5.22;;;;;;;2.00;78.83;98274.22;5110403;28;20032;-72
2022/02/23 04:13:51;;;;;;;12.40;5.57;;;;;;;2.02;78.93;98266.66;5091319;28;20031;-72
2022/02/23 04:16:17;;;;;;;11.70;4.93;;;;;;;2.05;78.39;98270.75;5110094;28;20115;-72
2022/02/23 04:18:44;;;;;;;13.07;5.18;;;;;;;2.06;78.52;98267.81;5110669;28;20395;-73
2022/02/23 04:21:09;;;;;;;10.98;5.05;;;;;;;2.11;78.53;98275.19;5090074;28;20032;-72
2022/02/23 04:23:35;;;;;;;9.30;5.03;;;;;;;2.16;78.15;98285.31;5110133;28;20031;-72
2022/02/23 04:26:00;;;;;;;10.80;5.85;;;;;;;2.18;78.73;98285.88;5109568;28;20110;-72
2022/02/23 04:28:29;;;;;;;11.48;5.18;;;;;;;2.16;78.81;98285.31;5110162;28;20030;-72
2022/02/23 04:30:55;;;;;;;16.40;6.53;;;;;;;2.16;79.18;98285.31;5110083;28;20028;-72
2022/02/23 04:33:21;;;;;;;13.27;7.00;;;;;;;2.17;79.13;98289.66;5110074;28;20067;-73
2022/02/23 04:35:47;;;;;;;10.02;5.18;;;;;;;2.18;78.74;98294.00;5110372;28;20024;-72
2022/02/23 04:38:14;;;;;;;17.75;6.50;;;;;;;2.16;79.03;98283.41;5110028;28;20776;-72
2022/02/23 04:40:41;;;;;;;16.33;6.03;;;;;;;2.18;79.39;98283.97;5110260;28;20024;-73
2022/02/23 04:43:07;;;;;;;15.68;7.13;;;;;;;2.17;79.21;98284.22;5110472;28;20030;-71
2022/02/23 04:45:32;;;;;;;14.52;6.55;;;;;;;2.18;79.16;98281.28;5110509;28;20020;-73
2022/02/23 04:47:57;;;;;;;16.65;6.40;;;;;;;2.22;78.92;98287.84;5109464;28;20441;-73
2022/02/23 04:50:23;;;;;;;14.68;6.25;;;;;;;2.20;78.92;98284.56;5109805;28;20430;-72
2022/02/23 04:52:48;;;;;;;12.20;6.10;;;;;;;2.21;79.09;98291.59;5109933;28;20485;-73
2022/02/23 04:55:14;;;;;;;14.18;6.57;;;;;;;2.22;79.41;98287.84;5110044;28;20403;-72
2022/02/23 04:57:39;;;;;;;15.45;6.65;;;;;;;2.25;79.28;98293.81;5091111;28;20051;-72
2022/02/23 05:00:05;;;;;;;16.70;6.95;;;;;;;2.24;79.06;98290.31;5110152;28;20034;-72
2022/02/23 05:02:31;;;;;;;17.95;8.10;;;;;;;2.26;79.42;98296.25;5109941;28;20077;-73
2022/02/23 05:04:56;;;;;;;16.73;6.78;;;;;;;2.27;79.42;98303.31;5110014;28;20024;-73
2022/02/23 05:07:24;;;;;;;14.80;5.95;;;;;;;2.28;79.38;98309.56;5109405;28;20020;-73
2022/02/23 05:09:50;;;;;;;12.82;6.00;;;;;;;2.30;79.98;98326.38;5112418;28;20027;-72
2022/02/23 05:12:16;;;;;;;17.80;7.63;;;;;;;2.33;79.68;98318.56;5114416;28;20084;-72
2022/02/23 05:14:41;;;;;;;14.70;6.72;;;;;;;2.35;79.32;98327.28;5114475;28;20042;-73
2022/02/23 05:17:07;;;;;;;13.48;5.43;;;;;;;2.37;79.47;98333.25;5113686;28;20027;-72
2022/02/23 05:19:34;;;;;;;13.45;6.30;;;;;;;2.47;79.74;98342.63;5114124;28;20023;-73
2022/02/23 05:22:02;;;;;;;15.30;6.78;;;;;;;2.55;79.83;98342.22;5113815;28;20383;-72
2022/02/23 05:24:31;;;;;;;13.52;6.00;;;;;;;2.55;79.73;98349.50;5094971;28;20416;-73
2022/02/23 05:26:57;;;;;;;15.48;6.90;;;;;;;2.58;79.90;98362.56;5113301;28;20028;-73
2022/02/23 05:29:23;;;;;;;14.63;6.40;;;;;;;2.58;79.76;98370.69;5113636;28;20028;-73
2022/02/23 05:31:48;;;;;;;15.55;6.93;;;;;;;2.57;79.80;98375.28;5113500;28;20054;-74
2022/02/23 05:34:14;;;;;;;15.38;6.93;;;;;;;2.61;80.56;98376.44;5113897;28;20039;-73
2022/02/23 05:36:40;;;;;;;17.00;7.05;;;;;;;2.63;80.86;98370.75;5113624;28;20032;-73
2022/02/23 05:39:05;;;;;;;16.00;6.25;;;;;;;2.68;80.49;98384.38;5113372;28;20043;-73
2022/02/23 05:41:31;;;;;;;14.52;6.07;;;;;;;2.72;81.59;98387.41;5113236;28;20023;-73
2022/02/23 05:43:56;;;;;;;10.77;5.60;;;;;;;2.76;80.50;98394.81;5113396;28;20060;-73
2022/02/23 05:46:22;;;;;;;9.15;5.07;;;;;;;2.77;80.75;98407.28;5112731;28;20491;-73
2022/02/23 05:48:47;;;;;;;10.02;4.35;;;;;;;2.83;81.48;98417.13;5113249;28;20111;-72
2022/02/23 05:51:27;;;;;;;9.40;4.38;;;;;;;2.92;81.10;98427.53;5113454;28;20030;-72
2022/02/23 05:53:52;;;;;;;8.25;3.60;;;;;;;2.98;81.21;98430.09;5113383;28;20038;-73
2022/02/23 05:56:17;;;;;;;9.25;4.07;;;;;;;2.98;80.95;98442.81;5112881;28;20019;-71
2022/02/23 05:58:43;;;;;;;7.07;3.60;;;;;;;3.00;80.94;98453.41;5113525;28;20027;-73
2022/02/23 06:01:10;;;;;;;4.65;2.47;;;;;;;3.05;81.01;98454.31;5113124;28;20026;-73
2022/02/23 06:03:36;;;;;;;5.88;3.05;;;;;;;3.11;80.60;98453.31;5113169;28;20027;-73
2022/02/23 06:06:02;;;;;;;4.32;2.35;;;;;;;3.19;80.74;98462.91;5113083;28;20103;-73
2022/02/23 06:08:27;;;;;;;5.20;2.55;;;;;;;3.22;81.02;98462.44;5112881;28;20035;-73
2022/02/23 06:10:53;;;;;;;8.23;2.70;;;;;;;3.26;80.21;98469.00;5112647;28;20019;-73
2022/02/23 06:13:18;;;;;;;6.13;2.75;;;;;;;3.28;80.19;98480.41;5112895;28;20584;-72
2022/02/23 06:15:44;;;;;;;5.53;1.67;;;;;;;3.32;80.55;98483.44;5113277;28;20023;-72
2022/02/23 06:18:09;;;;;;;4.93;1.95;;;;;;;3.35;80.24;98491.06;5112700;28;20027;-72
2022/02/23 06:20:34;;;;;;;5.72;2.25;;;;;;;3.38;80.64;98495.19;5111676;28;20459;-73
2022/02/23 06:23:00;;;;;;;5.13;2.17;;;;;;;3.42;80.66;98502.56;5112649;28;20028;-73
2022/02/23 06:25:25;;;;;;;10.52;2.65;;;;;;;3.43;79.70;98498.78;5112974;28;20032;-72
2022/02/23 06:27:51;;;;;;;8.23;2.10;;;;;;;3.39;80.43;98503.06;5112336;28;20020;-73
2022/02/23 06:30:16;;;;;;;7.00;2.33;;;;;;;3.41;79.82;98513.69;5112288;28;20524;-73
2022/02/23 06:32:42;;;;;;;8.80;2.70;;;;;;;3.43;79.82;98514.25;5112979;28;20524;-73
2022/02/23 06:35:07;;;;;;;9.23;2.90;;;;;;;3.44;79.14;98526.75;5112007;28;20028;-72
2022/02/23 06:37:33;;;;;;;6.50;2.10;;;;;;;3.45;79.00;98532.97;5112334;28;20031;-73
2022/02/23 06:39:59;;;;;;;8.07;2.35;;;;;;;3.49;78.17;98540.34;5111766;28;20719;-73
2022/02/23 06:42:24;;;;;;;6.53;2.13;;;;;;;3.51;78.30;98538.22;5112159;28;20467;-73
2022/02/23 06:44:51;;;;;;;11.30;2.55;;;;;;;3.57;78.38;98552.69;5112599;28;20487;-73
2022/02/23 06:47:16;;;;;;;10.88;2.72;;;;;;;3.60;77.77;98559.50;5111845;28;20032;-73
2022/02/23 06:49:42;;;;;;;7.68;2.47;;;;;;;3.59;77.64;98564.13;5111931;28;20475;-75
2022/02/23 06:52:10;;;;;;;8.98;2.65;;;;;;;3.58;77.46;98565.19;5112059;28;20029;-73
2022/02/23 06:54:36;;;;;;;8.70;2.80;;;;;;;3.63;77.65;98584.25;5111546;28;20057;-73
2022/02/23 06:57:06;;;;;;;10.95;3.53;;;;;;;3.65;76.80;98584.84;5111655;28;20499;-73
2022/02/23 06:59:31;;;;;;;14.73;5.13;;;;;;;3.68;77.07;98592.44;5112223;28;20395;-72
2022/02/23 07:01:57;;;;;;;34.20;11.07;;;;;;;3.69;77.13;98601.41;5111982;28;20020;-73
2022/02/23 07:04:23;;;;;;;28.60;8.43;;;;;;;3.68;77.05;98595.16;5111985;28;20381;-73
2022/02/23 07:06:48;;;;;;;27.20;9.43;;;;;;;3.71;76.54;98605.53;5111786;28;20057;-73
2022/02/23 07:09:13;;;;;;;13.85;4.07;;;;;;;3.73;76.15;98614.22;5111524;28;20024;-72
2022/02/23 07:11:39;;;;;;;23.35;6.63;;;;;;;3.69;75.64;98620.41;5111803;28;20019;-73
2022/02/23 07:14:06;;;;;;;24.58;5.53;;;;;;;3.69;75.64;98626.63;5111357;28;20027;-73
2022/02/23 07:16:31;;;;;;;38.15;10.43;;;;;;;3.72;75.68;98630.78;5111291;28;20479;-73
2022/02/23 07:18:57;;;;;;;26.25;7.07;;;;;;;3.75;75.36;98643.00;5111521;28;20030;-73
2022/02/23 07:21:22;;;;;;;27.05;6.55;;;;;;;3.76;76.10;98653.63;5111263;28;20051;-73
2022/02/23 07:23:48;;;;;;;26.70;6.57;;;;;;;3.78;74.79;98659.63;5111722;28;20035;-73
2022/02/23 07:26:16;;;;;;;15.93;3.53;;;;;;;3.79;75.19;98655.84;5111027;28;20027;-73
2022/02/23 07:28:42;;;;;;;29.80;6.63;;;;;;;3.79;74.93;98661.28;5076114;28;20043;-73
2022/02/23 07:31:09;;;;;;;11.05;3.13;;;;;;;3.82;74.47;98658.06;5111093;28;20051;-73
2022/02/23 07:33:35;;;;;;;25.00;5.65;;;;;;;3.88;74.25;98664.38;5111177;28;20027;-74
2022/02/23 07:36:02;;;;;;;20.02;5.20;;;;;;;3.96;74.26;98676.72;5111109;28;20392;-73
2022/02/23 07:38:28;;;;;;;18.88;4.47;;;;;;;3.96;73.51;98690.28;5111234;28;20045;-73
2022/02/23 07:40:53;;;;;;;11.70;3.17;;;;;;;3.99;74.20;98695.22;5110935;28;20047;-73
2022/02/23 07:43:19;;;;;;;18.45;5.55;;;;;;;4.01;72.46;98699.34;5109990;28;20027;-73
2022/02/23 07:45:44;;;;;;;14.30;3.72;;;;;;;4.02;72.79;98709.13;5110989;28;20478;-73
2022/02/23 07:48:10;;;;;;;8.85;2.42;;;;;;;4.04;72.51;98711.59;5110586;28;20027;-73
2022/02/23 07:50:37;;;;;;;24.35;5.38;;;;;;;4.07;72.58;98718.44;5110029;28;20085;-73
2022/02/23 07:53:03;;;;;;;10.15;3.13;;;;;;;4.10;71.92;98726.88;5110727;28;20471;-73
2022/02/23 07:55:29;;;;;;;11.95;2.92;;;;;;;4.10;71.43;98732.31;5110402;28;20023;-73
2022/02/23 07:57:56;;;;;;;35.28;8.18;;;;;;;4.10;71.14;98735.03;5110442;28;20046;-73
2022/02/23 08:00:22;;;;;;;14.73;3.00;;;;;;;4.07;71.62;98754.53;5109991;28;20023;-74
2022/02/23 08:02:48;;;;;;;13.25;3.50;;;;;;;4.06;72.26;98741.22;5110815;28;20092;-73
2022/02/23 08:05:13;;;;;;;12.55;3.05;;;;;;;4.02;71.52;98752.56;5110562;28;20028;-73
2022/02/23 08:07:39;;;;;;;6.72;2.25;;;;;;;3.99;70.89;98766.63;5110374;28;20111;-73
2022/02/23 08:10:05;;;;;;;11.40;3.22;;;;;;;3.96;71.61;98764.38;5110042;28;20042;-73
2022/02/23 08:12:31;;;;;;;9.52;2.38;;;;;;;3.98;71.57;98775.81;5109505;28;20041;-73
2022/02/23 08:19:30;;;;;;;9.45;2.33;;;;;;;3.96;71.21;98774.41;5110441;28;20049;-73
2022/02/23 08:20:26;;;;;;;11.07;3.60;;;;;;;3.96;70.75;98777.13;5110442;28;20045;-73
2022/02/23 08:22:52;;;;;;;10.15;3.38;;;;;;;4.00;71.21;98781.84;5110322;28;20023;-73
2022/02/23 08:25:18;;;;;;;13.55;3.72;;;;;;;4.06;69.96;98793.59;5110487;28;20031;-77
2022/02/23 08:27:44;;;;;;;10.27;3.33;;;;;;;4.11;71.12;98787.41;5110218;28;20020;-73
2022/02/23 08:30:11;;;;;;;12.57;3.72;;;;;;;4.11;70.07;98790.97;5109832;28;20031;-72
2022/02/23 08:32:37;;;;;;;13.15;3.60;;;;;;;4.15;70.15;98794.84;5108101;28;20059;-72
2022/02/23 08:35:02;;;;;;;11.13;3.75;;;;;;;4.21;69.93;98795.72;5110297;28;20123;-73
2022/02/23 08:37:28;;;;;;;11.93;3.67;;;;;;;4.26;69.86;98798.53;5109045;28;20039;-73
2022/02/23 08:39:53;;;;;;;10.07;2.67;;;;;;;4.27;68.80;98797.47;5110563;28;20023;-73
2022/02/23 08:42:19;;;;;;;7.78;1.90;;;;;;;4.26;68.44;98800.44;5110054;28;20035;-73
2022/02/23 08:44:45;;;;;;;11.70;2.72;;;;;;;4.30;68.78;98801.56;5109031;28;20020;-74
2022/02/23 08:47:11;;;;;;;9.75;3.00;;;;;;;4.36;67.97;98807.94;5112856;28;20030;-73
2022/02/23 08:49:37;;;;;;;9.23;2.72;;;;;;;4.44;67.10;98813.75;5113881;28;20432;-74
2022/02/23 08:52:03;;;;;;;12.40;3.05;;;;;;;4.51;68.00;98807.34;5113118;28;20084;-74
2022/02/23 08:54:28;;;;;;;13.50;3.17;;;;;;;4.60;67.83;98811.28;5113434;28;20031;-73
2022/02/23 08:56:54;;;;;;;11.85;3.30;;;;;;;4.69;67.94;98807.06;5113267;28;20404;-74
2022/02/23 08:59:19;;;;;;;11.52;2.88;;;;;;;4.77;66.75;98814.78;5108998;28;20051;-71
2022/02/23 09:01:45;;;;;;;13.27;3.63;;;;;;;4.85;66.79;98823.59;5112627;28;20044;-72
2022/02/23 09:04:11;;;;;;;8.20;2.60;;;;;;;4.91;66.87;98823.41;5112476;28;20027;-71
2022/02/23 09:06:39;;;;;;;7.97;2.10;;;;;;;4.89;66.29;98827.47;5112866;28;20019;-72
2022/02/23 09:09:11;;;;;;;7.72;1.90;;;;;;;4.87;65.18;98826.91;5113281;28;20444;-74
2022/02/23 09:11:37;;;;;;;10.50;2.65;;;;;;;4.86;65.05;98825.25;5112914;28;20039;-72
2022/02/23 09:14:03;;;;;;;7.30;2.58;;;;;;;4.88;65.92;98829.38;5112682;28;20111;-72
2022/02/23 09:16:29;;;;;;;6.40;2.25;;;;;;;4.83;64.55;98821.16;5112681;28;20157;-70
2022/02/23 09:18:55;;;;;;;9.43;3.60;;;;;;;4.82;65.01;98826.81;5113422;28;20028;-70
2022/02/23 09:21:20;;;;;;;12.40;3.35;;;;;;;4.77;65.28;98836.53;5110581;28;20783;-70
2022/02/23 09:23:46;;;;;;;6.95;2.40;;;;;;;4.75;64.59;98849.56;5111543;27;20166;-71
2022/02/23 09:26:11;;;;;;;12.80;3.30;;;;;;;4.79;64.28;98857.22;5110681;28;20073;-72
2022/02/23 09:28:37;;;;;;;8.93;2.13;;;;;;;4.81;64.58;98850.47;5112481;28;20035;-73
2022/02/23 09:31:07;;;;;;;12.70;3.20;;;;;;;4.97;64.68;98847.97;5111783;28;20459;-73
2022/02/23 09:33:33;;;;;;;9.95;2.75;;;;;;;5.04;64.16;98832.31;5111819;28;20468;-72
2022/02/23 09:36:02;;;;;;;11.32;2.35;;;;;;;5.04;64.71;98843.16;5112161;28;20041;-74
2022/02/23 09:38:31;;;;;;;10.33;2.33;;;;;;;5.07;64.39;98848.94;5111176;28;20106;-76
2022/02/23 09:40:59;;;;;;;8.45;2.55;;;;;;;5.13;64.05;98847.13;5092964;28;20277;-73
2022/02/23 09:43:24;;;;;;;13.13;3.03;;;;;;;5.15;63.66;98858.56;5111059;28;20034;-74
2022/02/23 09:45:56;;;;;;;9.00;2.50;;;;;;;5.07;64.10;98859.00;5111369;28;20410;-74
2022/02/23 09:48:24;;;;;;;11.38;3.47;;;;;;;4.90;67.42;98891.63;5111756;28;20073;-74
2022/02/23 09:50:51;;;;;;;9.45;3.28;;;;;;;4.72;67.59;98888.09;5110625;28;20438;-73
2022/02/23 09:53:21;;;;;;;13.25;2.45;;;;;;;4.54;69.44;98891.06;5110545;28;20189;-73
2022/02/23 09:55:48;;;;;;;8.80;2.28;;;;;;;4.47;69.36;98892.03;5108143;28;20376;-72
2022/02/23 09:58:14;;;;;;;26.15;8.63;;;;;;;4.44;70.05;98889.00;5110372;28;20050;-73
2022/02/23 10:00:41;;;;;;;12.77;4.45;;;;;;;4.38;70.54;98895.41;5110846;28;20024;-74
2022/02/23 10:03:07;;;;;;;49.65;13.18;;;;;;;4.34;71.41;98895.06;5110862;28;20039;-76
2022/02/23 10:05:38;;;;;;;21.88;5.68;;;;;;;4.40;71.67;98898.69;5111102;28;20023;-75
2022/02/23 10:08:09;;;;;;;17.63;4.05;;;;;;;4.49;71.98;98902.63;5091943;28;20026;-75
2022/02/23 10:10:37;;;;;;;15.82;4.30;;;;;;;4.61;71.15;98908.84;5092106;28;20422;-74
2022/02/23 10:13:03;;;;;;;14.55;4.15;;;;;;;4.66;71.17;98910.84;5110698;28;20043;-72
2022/02/23 10:15:37;;;;;;;17.98;5.20;;;;;;;4.73;69.92;98906.03;5110397;28;20107;-72
2022/02/23 10:18:20;;;;;;;9.82;2.80;;;;;;;4.80;69.69;98900.47;5109924;28;20043;-73
2022/02/23 10:20:48;;;;;;;11.10;3.20;;;;;;;4.85;69.33;98902.41;5110042;28;20019;-73
2022/02/23 10:23:21;;;;;;;13.70;3.95;;;;;;;4.85;68.76;98907.84;5110230;28;20075;-73
2022/02/23 10:25:58;;;;;;;11.00;3.67;;;;;;;4.91;68.60;98904.97;5091650;28;20035;-73
2022/02/23 10:28:32;;;;;;;10.85;3.42;;;;;;;4.98;68.43;98903.97;5110371;28;20395;-72
2022/02/23 10:30:59;;;;;;;19.52;5.72;;;;;;;4.96;66.92;98922.41;5107687;28;20023;-72
2022/02/23 10:33:33;;;;;;;13.25;3.50;;;;;;;4.99;64.48;98917.34;5109817;28;20383;-72
2022/02/23 10:36:05;;;;;;;6.28;1.98;;;;;;;5.04;64.20;98911.13;5110685;28;20026;-72
2022/02/23 10:38:42;;;;;;;14.63;3.58;;;;;;;5.09;64.10;98913.13;5109746;28;20490;-72
2022/02/23 10:41:09;;;;;;;10.32;2.50;;;;;;;5.14;63.60;98918.63;5109289;28;20521;-72
2022/02/23 10:43:39;;;;;;;13.98;3.22;;;;;;;5.20;63.81;98909.47;5109450;28;20038;-72
2022/02/23 10:46:11;;;;;;;7.40;2.10;;;;;;;5.20;63.71;98913.03;5110543;28;20481;-73
2022/02/23 10:48:42;;;;;;;10.05;2.80;;;;;;;5.21;64.25;98924.72;5105498;28;20047;-72
2022/02/23 10:51:10;;;;;;;11.50;3.50;;;;;;;5.27;63.27;98920.19;5109825;28;20024;-71
2022/02/23 10:53:37;;;;;;;10.02;2.50;;;;;;;5.36;62.67;98922.22;5109793;28;20028;-72
2022/02/23 10:56:29;;;;;;;8.25;2.72;;;;;;;5.47;62.01;98931.34;5109812;28;20080;-73
2022/02/23 10:59:17;;;;;;;12.27;3.10;;;;;;;5.53;61.24;98936.84;5110180;28;20032;-72
2022/02/23 11:01:49;;;;;;;9.13;3.25;;;;;;;5.52;62.05;98925.13;5109868;28;20547;-73
2022/02/23 11:04:16;;;;;;;10.45;3.47;;;;;;;5.56;60.90;98931.72;5109867;28;20169;-72
2022/02/23 11:06:42;;;;;;;13.88;4.32;;;;;;;5.53;61.55;98909.66;5089670;28;20047;-73
2022/02/23 11:09:10;;;;;;;16.48;5.75;;;;;;;5.57;61.73;98911.59;5109778;28;20854;-73
2022/02/23 11:11:36;;;;;;;20.50;5.85;;;;;;;5.69;61.11;98925.13;5109537;28;20110;-73
2022/02/23 11:14:05;;;;;;;11.15;4.30;;;;;;;5.84;60.22;98919.03;5108420;28;20106;-73
2022/02/23 11:16:31;;;;;;;12.87;3.87;;;;;;;5.92;60.48;98929.44;5109293;28;20072;-73
2022/02/23 11:18:58;;;;;;;20.20;5.88;;;;;;;6.00;58.25;98930.97;5109946;28;20279;-74
2022/02/23 11:21:26;;;;;;;7.60;2.60;;;;;;;6.04;56.91;98931.25;5109358;28;20412;-74
2022/02/23 11:23:57;;;;;;;11.75;4.45;;;;;;;6.02;57.57;98927.97;5109654;28;20072;-73
2022/02/23 11:26:25;;;;;;;9.13;2.83;;;;;;;6.13;57.28;98924.28;5109262;28;20060;-73
2022/02/23 11:29:02;;;;;;;6.78;2.30;;;;;;;6.15;56.45;98932.19;5108516;28;20480;-72
2022/02/23 11:31:32;;;;;;;13.45;3.88;;;;;;;6.06;55.13;98912.75;5104030;28;20053;-72
2022/02/23 11:33:59;;;;;;;8.20;3.58;;;;;;;6.07;56.16;98939.75;5095347;28;20070;-73